Coppermine, Canada
Current Conditions -  °F | °C
As of 4:00 PM on Tuesday 27 Jan 2015 (Local Time) from CYCO Reporting Station
Blowing Snow Blowing Snow  
Wind Chill: -41°   Ceiling: 3500
Heat Index: -13°   Visibility: 6mi
Dew Point: -20°   Wind: 23mph
Humidity: 70%   Direction: 240°WSW
Pressure: 30.12"   Gusts: NA
Location:  67.83°N, 115.08°W
Report Text: CYCO 272300Z 24020KT 6SM IC BLSN FEW014 OVC035 M25/M29 A3012 RMK SC2SC6 VIS SW 2 BLSN SLP205
Loading
Personal Weather Stations






























Interactive Weather Map New forecast layout! Learn more

10-Day Weather Forecast

Advertisements
Track Severe Weather on mobile